Latest Weather Observations for Cessnock Airport

IDN60801

Issued at 12:35 pm EST Tuesday 16 September 2014 (issued every 30 minutes, with the page automatically refreshed every 10 minutes)

About weather observations | Map of weather stations | Latest weather observations for NSW | Other Formats
Station Details ID: 061260 Name: CESSNOCK AIRPORT AWS Lat: -32.79 Lon: 151.34 Height: 61.0 m
Data from the previous 72 hours. | See also: Recent months at Cessnock Airport
Date/Time
EST
Temp
°C
App
Temp
°C
Dew
Point
Rel
Hum
%
Delta-T
°C
Wind Press
QNH
hPa
Press
MSL
hPa
Rain
since 9 am
mm
Dir
 
Spd
km/h
Gust
km/h
Spd
kts
Gust
kts
16/12:30pm 23.7 19.6 8.5 38 8.1 NNW 20 33 11 18 1007.0 1006.9 0.0
16/12:00pm 22.8 19.8 9.2 42 7.3 N 15 22 8 12 1007.6 1007.5 0.0
16/11:30am 21.8 20.5 11.2 51 5.9 N 9 17 5 9 1008.3 1008.2 0.0
16/11:00am 19.8 19.4 12.3 62 4.2 E 6 7 3 4 1008.8 1008.7 0.0
16/10:30am 19.2 19.1 12.0 63 4.0 ENE 4 9 2 5 1009.3 1009.2 0.0
16/10:00am 18.0 18.5 12.7 71 3.0 NNE 2 9 1 5 1009.7 1009.6 0.0
16/09:30am 16.8 17.5 12.3 75 2.5 CALM 0 0 0 0 1010.3 1010.2 0.0
16/09:00am 17.2 16.6 11.7 70 3.0 N 6 11 3 6 1010.6 1010.5 0.0
16/08:30am 17.5 16.9 12.4 72 2.8 ESE 7 9 4 5 1010.7 1010.6 0.0
16/08:00am 15.5 16.3 13.7 89 1.0 SE 2 7 1 4 1011.0 1010.9 0.0
16/07:30am 14.6 15.4 12.6 88 1.1 CALM 0 0 0 0 1011.1 1011.0 0.0
16/07:00am 13.3 14.1 12.7 96 0.3 CALM 0 0 0 0 1011.3 1011.2 0.0
16/06:30am 13.1 11.6 12.0 93 0.6 S 11 15 6 8 1011.2 1011.1 0.0
16/06:00am 14.3 12.8 13.0 92 0.7 S 13 20 7 11 1011.0 1010.9 0.0
16/05:30am 13.3 12.5 13.0 98 0.2 W 9 13 5 7 1012.7 1012.6 0.0
16/05:00am 12.5 11.1 12.2 98 0.2 WSW 11 15 6 8 1012.1 1012.0 0.0
16/04:30am 11.9 10.7 11.7 99 0.1 SSW 9 11 5 6 1011.2 1011.1 0.0
16/04:00am 11.5 10.1 11.0 97 0.3 WSW 9 11 5 6 1011.3 1011.2 0.0
16/03:30am 12.3 11.5 11.7 96 0.3 SSW 7 9 4 5 1011.6 1011.5 0.0
16/03:00am 12.6 11.5 11.8 95 0.4 SW 9 11 5 6 1011.6 1011.5 0.0
16/02:30am 12.7 11.4 10.1 84 1.3 S 7 9 4 5 1012.0 1011.9 0.0
16/02:00am 13.5 11.9 10.3 81 1.7 S 9 11 5 6 1012.5 1012.4 0.0
16/01:30am 14.3 13.2 10.7 79 1.9 ESE 7 9 4 5 1013.1 1013.0 0.0
16/01:00am 14.7 13.4 11.1 79 1.9 S 9 13 5 7 1013.8 1013.8 0.0
16/12:30am 14.4 12.6 10.8 79 1.9 S 11 17 6 9 1014.2 1014.2 0.0
16/12:00am 14.2 13.1 10.6 79 1.9 S 7 11 4 6 1014.3 1014.3 0.0
 
Date/Time
EST
Temp
°C
App
Temp
°C
Dew
Point
Rel
Hum
%
Delta-T
°C
Wind Press
QNH
hPa
Press
MSL
hPa
Rain
since 9 am
mm
Dir
 
Spd
km/h
Gust
km/h
Spd
kts
Gust
kts
15/11:30pm 14.4 13.0 10.8 79 1.9 S 9 13 5 7 1014.5 1014.5 0.0
15/11:00pm 14.4 13.0 10.8 79 1.9 S 9 15 5 8 1014.8 1014.8 0.0
15/10:30pm 14.3 12.5 10.7 79 1.9 S 11 13 6 7 1014.9 1014.9 0.0
15/10:00pm 14.4 12.5 10.4 77 2.1 S 11 13 6 7 1015.3 1015.3 0.0
15/09:30pm 14.9 13.1 10.9 77 2.1 SSE 11 15 6 8 1015.5 1015.5 0.0
15/09:00pm 14.8 12.9 10.6 76 2.2 S 11 15 6 8 1015.6 1015.6 0.0
15/08:30pm 14.5 12.7 10.7 78 2.0 S 11 15 6 8 1015.6 1015.6 0.0
15/08:00pm 14.9 13.4 10.7 76 2.2 S 9 13 5 7 1015.6 1015.6 0.0
15/07:30pm 15.2 13.4 10.8 75 2.3 SSE 11 11 6 6 1015.4 1015.4 0.0
15/07:00pm 15.4 13.9 10.4 72 2.6 SSE 9 13 5 7 1015.3 1015.3 0.0
15/06:30pm 16.3 14.4 10.6 69 3.0 SE 11 15 6 8 1015.0 1015.0 0.0
15/06:00pm 17.0 15.2 10.8 67 3.3 SE 11 15 6 8 1015.0 1015.0 0.0
15/05:30pm 17.7 15.2 11.0 65 3.6 ESE 15 24 8 13 1014.6 1014.6 0.0
15/05:00pm 18.7 15.4 11.0 61 4.2 ESE 19 26 10 14 1014.4 1014.4 0.0
15/04:30pm 19.9 17.0 11.1 57 4.8 ESE 17 24 9 13 1014.0 1014.0 0.0
15/04:00pm 20.8 17.6 11.4 55 5.2 E 19 24 10 13 1013.8 1013.8 0.0
15/03:30pm 21.4 17.9 10.9 51 5.8 E 20 26 11 14 1013.7 1013.7 0.0
15/03:00pm 22.3 20.1 5.3 33 8.5 E 6 15 3 8 1013.8 1013.8 0.0
15/02:30pm 22.0 19.5 6.7 37 7.8 ESE 9 15 5 8 1013.9 1013.9 0.0
15/02:00pm 22.2 18.8 7.6 39 7.6 ENE 15 20 8 11 1014.3 1014.3 0.0
15/01:30pm 22.3 20.3 6.9 37 7.9 NNE 7 17 4 9 1014.7 1014.7 0.0
15/01:00pm 21.3 19.5 7.2 40 7.2 NNW 6 11 3 6 1015.0 1015.0 0.0
15/12:30pm 20.6 18.7 6.9 41 7.0 ESE 6 11 3 6 1015.4 1015.4 0.0
15/12:00pm 21.0 19.1 8.9 46 6.4 NNE 9 15 5 8 1015.8 1015.8 0.0
15/11:30am 20.8 18.9 9.1 47 6.2 NNW 9 19 5 10 1016.2 1016.2 0.0
15/11:00am 20.5 18.8 10.0 51 5.7 NNE 9 19 5 10 1016.8 1016.8 0.0
15/10:30am 19.8 17.7 11.3 58 4.7 NE 13 19 7 10 1017.3 1017.3 0.0
15/10:00am 19.4 17.8 11.4 60 4.4 NE 11 19 6 10 1017.7 1017.7 0.0
15/09:30am 18.9 18.4 12.2 65 3.7 NE 6 13 3 7 1018.1 1018.1 0.0
15/09:00am 17.9 17.1 11.7 67 3.4 NE 7 13 4 7 1018.2 1018.2 0.0
15/08:30am 17.1 16.5 11.8 71 2.9 WNW 6 9 3 5 1018.4 1018.4 0.0
15/08:00am 15.7 17.0 14.1 90 0.9 CALM 0 7 0 4 1018.3 1018.3 0.0
15/07:30am 13.2 13.8 13.2 100 0.0 E 2 6 1 3 1018.3 1018.3 0.0
15/07:00am 11.0 10.2 11.0 100 0.0 ESE 6 6 3 3 1018.0 1018.0 0.0
15/06:30am 8.8 8.2 8.8 100 0.0 WSW 2 9 1 5 1018.1 1018.1 0.0
15/06:00am 8.6 8.3 8.6 100 0.0 CALM 0 0 0 0 1017.7 1017.7 0.0
15/05:30am 8.3 7.9 8.3 100 0.0 CALM 0 0 0 0 1017.6 1017.6 0.0
15/05:00am 8.4 8.0 8.4 100 0.0 CALM 0 0 0 0 1017.6 1017.6 0.0
15/04:30am 9.9 9.9 9.9 100 0.0 CALM 0 0 0 0 1017.6 1017.6 0.0
15/04:00am 10.5 9.6 10.5 100 0.0 WSW 6 7 3 4 1017.4 1017.4 0.0
15/03:30am 10.9 9.9 10.9 100 0.0 N 7 9 4 5 1017.3 1017.3 0.0
15/03:00am 11.6 10.3 11.4 99 0.1 WSW 9 11 5 6 1017.1 1017.1 0.0
15/02:30am 11.5 9.8 11.2 98 0.2 SW 11 13 6 7 1017.3 1017.3 0.0
15/02:00am 12.5 11.9 11.7 95 0.4 S 6 7 3 4 1017.5 1017.5 0.0
15/01:30am 13.5 12.4 10.7 83 1.5 S 7 9 4 5 1017.7 1017.7 0.0
15/01:00am 14.5 12.4 11.3 81 1.7 SSW 13 17 7 9 1018.0 1018.0 0.0
15/12:30am 13.9 13.1 12.8 93 0.6 SSW 9 13 5 7 1018.0 1018.0 0.0
15/12:00am 14.1 13.0 13.1 94 0.6 SSW 11 13 6 7 1018.1 1018.1 0.0
 
Date/Time
EST
Temp
°C
App
Temp
°C
Dew
Point
Rel
Hum
%
Delta-T
°C
Wind Press
QNH
hPa
Press
MSL
hPa
Rain
since 9 am
mm
Dir
 
Spd
km/h
Gust
km/h
Spd
kts
Gust
kts
14/11:30pm 14.5 13.9 13.4 93 0.6 SSW 9 11 5 6 1018.0 1018.0 0.0
14/11:00pm 14.8 13.7 13.2 90 0.9 S 11 15 6 8 1017.9 1017.9 0.0
14/10:30pm 15.1 13.7 12.1 82 1.6 SSW 11 15 6 8 1017.7 1017.7 0.0
14/10:00pm 15.8 14.3 12.0 78 2.1 SSW 11 15 6 8 1017.8 1017.8 0.0
14/09:30pm 15.9 14.3 11.5 75 2.4 SSW 11 15 6 8 1017.7 1017.7 0.0
14/09:00pm 15.5 13.7 10.7 73 2.5 SW 11 13 6 7 1017.5 1017.5 0.0
14/08:30pm 16.4 15.1 11.1 71 2.9 SW 9 11 5 6 1017.1 1017.1 0.0
14/08:00pm 17.2 15.6 11.5 69 3.1 S 11 15 6 8 1016.7 1016.7 0.0
14/07:30pm 17.2 14.6 10.8 66 3.4 S 15 17 8 9 1016.3 1016.3 0.0
14/07:00pm 16.5 13.2 9.7 64 3.6 S 17 24 9 13 1015.7 1015.7 0.0
14/06:30pm 15.0 14.8 8.9 67 3.1 CALM 0 4 0 2 1015.1 1015.1 0.0
14/06:00pm 18.4 16.6 8.1 51 5.3 NNW 7 9 4 5 1014.8 1014.8 0.0
14/05:30pm 22.3 19.7 6.1 35 8.2 N 9 11 5 6 1014.6 1014.6 0.0
14/05:00pm 23.0 20.0 5.9 33 8.7 NNW 11 19 6 10 1014.6 1014.6 0.0
14/04:30pm 23.4 20.1 6.2 33 8.8 NNW 13 19 7 10 1014.6 1014.6 0.0
14/04:00pm 24.5 21.2 6.3 31 9.4 NNW 13 20 7 11 1014.7 1014.7 0.0
14/03:30pm 24.7 20.5 5.5 29 9.8 NNW 17 26 9 14 1014.7 1014.7 0.0
14/03:00pm 24.7 20.8 6.9 32 9.3 NW 17 24 9 13 1014.9 1014.9 0.0
14/02:30pm 24.5 20.7 7.6 34 8.9 N 17 30 9 16 1015.1 1015.1 0.0
14/02:00pm 23.9 20.8 8.7 38 8.2 NNW 15 22 8 12 1015.4 1015.4 0.0
14/01:30pm 23.6 19.5 8.8 39 7.9 NNW 20 32 11 17 1015.8 1015.8 0.0
14/01:00pm 23.7 21.0 10.4 43 7.3 NW 15 26 8 14 1016.4 1016.4 0.0
14/12:30pm 22.2 18.3 9.4 44 6.9 NW 20 33 11 18 1016.9 1016.9 0.0
14/12:00pm 22.1 18.4 10.3 47 6.4 NW 20 33 11 18 1017.6 1017.6 0.0
14/11:30am 20.3 16.2 10.1 52 5.5 NNW 22 39 12 21 1018.3 1018.3 0.0
14/11:00am 19.8 16.9 12.3 62 4.2 NNW 19 32 10 17 1018.9 1018.9 0.0
14/10:30am 17.8 15.4 11.4 66 3.5 NNW 15 28 8 15 1019.6 1019.6 0.0
14/10:00am 15.7 13.8 14.1 90 0.9 N 17 22 9 12 1020.2 1020.2 0.0
14/09:30am 14.5 13.5 14.5 100 0.0 N 13 20 7 11 1020.6 1020.6 0.0
14/09:00am 13.3 12.6 13.3 100 0.0 NW 9 13 5 7 1020.8 1020.8 0.0
14/08:30am 13.0 12.2 13.0 100 0.0 NNW 9 17 5 9 1021.0 1021.0 0.0
14/08:00am 12.4 11.4 12.4 100 0.0 NW 9 17 5 9 1021.1 1021.1 0.0
14/07:30am 12.1 10.3 12.1 100 0.0 NW 13 20 7 11 1020.9 1020.9 0.0
14/07:00am 10.5 9.9 10.5 100 0.0 NE 4 7 2 4 1020.7 1020.7 0.0
14/06:30am 9.1 8.2 9.1 100 0.0 ENE 4 6 2 3 1020.4 1020.4 0.0
14/06:00am 8.2 7.8 8.2 100 0.0 CALM 0 0 0 0 1020.3 1020.3 0.0
14/05:30am 7.6 7.0 7.6 100 0.0 CALM 0 0 0 0 1019.9 1019.9 0.0
14/05:00am 8.2 7.8 8.2 100 0.0 CALM 0 0 0 0 1020.0 1020.0 0.0
14/04:30am 8.0 7.5 8.0 100 0.0 CALM 0 0 0 0 1019.9 1019.9 0.0
14/04:00am 7.8 7.3 7.8 100 0.0 CALM 0 0 0 0 1020.0 1020.0 0.0
14/03:30am 8.0 7.5 8.0 100 0.0 CALM 0 0 0 0 1020.0 1020.0 0.0
14/03:00am 8.1 7.7 8.1 100 0.0 CALM 0 0 0 0 1020.2 1020.2 0.0
14/02:30am 8.8 8.5 8.8 100 0.0 CALM 0 0 0 0 1020.5 1020.5 0.0
14/02:00am 8.5 8.2 8.5 100 0.0 CALM 0 0 0 0 1020.8 1020.8 0.0
14/01:30am 8.7 8.4 8.7 100 0.0 CALM 0 0 0 0 1021.1 1021.1 0.0
14/01:00am 8.8 8.2 8.8 100 0.0 WSW 2 7 1 4 1021.4 1021.4 0.0
14/12:30am 9.8 8.5 9.8 100 0.0 SW 7 9 4 5 1021.6 1021.6 0.0
14/12:00am 10.2 10.3 10.2 100 0.0 CALM 0 0 0 0 1021.8 1021.8 0.0
 
Date/Time
EST
Temp
°C
App
Temp
°C
Dew
Point
Rel
Hum
%
Delta-T
°C
Wind Press
QNH
hPa
Press
MSL
hPa
Rain
since 9 am
mm
Dir
 
Spd
km/h
Gust
km/h
Spd
kts
Gust
kts
13/11:30pm 10.0 8.9 10.0 100 0.0 WSW 6 7 3 4 1022.1 1022.1 0.0
13/11:00pm 10.7 9.8 10.5 99 0.1 SW 6 7 3 4 1022.2 1022.2 0.0
13/10:30pm 11.1 10.3 10.9 99 0.1 SW 6 7 3 4 1022.6 1022.5 0.0
13/10:00pm 12.2 11.2 12.2 100 0.0 SSW 9 11 5 6 1022.6 1022.5 0.0
13/09:30pm 11.4 11.0 11.1 98 0.2 SSW 4 9 2 5 1022.7 1022.6 0.0
13/09:00pm 12.1 11.3 11.8 98 0.2 SW 7 11 4 6 1022.8 1022.7 0.0
13/08:30pm 12.5 11.9 12.2 98 0.2 SSW 7 9 4 5 1022.9 1022.8 0.0
13/08:00pm 12.8 11.8 12.3 97 0.3 SSW 9 11 5 6 1023.0 1022.9 0.0
13/07:30pm 13.0 11.7 11.4 90 0.8 SSW 9 9 5 5 1022.9 1022.8 0.0
13/07:00pm 14.2 13.2 11.0 81 1.7 S 7 9 4 5 1022.8 1022.7 0.0
13/06:30pm 14.8 13.9 10.8 77 2.1 SSE 6 7 3 4 1022.7 1022.6 0.0
13/06:00pm 15.9 14.2 11.1 73 2.6 SE 11 17 6 9 1022.3 1022.3 0.0
13/05:30pm 16.6 14.4 10.9 69 3.1 ESE 13 20 7 11 1022.2 1022.2 0.0
13/05:00pm 17.5 14.6 10.9 65 3.5 ESE 17 24 9 13 1022.1 1022.1 0.0
13/04:30pm 18.0 14.5 10.9 63 3.8 E 20 28 11 15 1021.9 1021.9 0.0
13/04:00pm 18.9 15.7 11.2 61 4.2 SE 19 26 10 14 1021.8 1021.8 0.0
13/03:30pm 18.5 15.2 11.6 64 3.8 ESE 20 26 11 14 1021.9 1021.9 0.0
13/03:00pm 20.1 17.8 13.1 64 4.0 E 17 24 9 13 1021.9 1021.9 0.0
13/02:30pm 19.3 17.0 11.8 62 4.2 E 15 19 8 10 1022.0 1022.0 0.0
13/02:00pm 19.8 17.5 11.8 60 4.4 ESE 15 19 8 10 1022.1 1022.1 0.0
13/01:30pm 20.1 18.0 9.7 51 5.6 ESE 11 17 6 9 1022.6 1022.5 0.0
13/01:00pm 20.0 17.8 9.3 50 5.7 ENE 11 17 6 9 1022.8 1022.7 0.0

Other Formats:

Comma delimited format used in spreadsheet applications
http://www.bom.gov.au/fwo/IDN60801/IDN60801.95771.axf

JavaScript Object Notation format (JSON) in row-major order
http://www.bom.gov.au/fwo/IDN60801/IDN60801.95771.json